sensor_id;sensor_type;location;lat;lon;timestamp;P1;durP1;ratioP1;P2;durP2;ratioP2
25731;SDS011;13585;50.864;4.406;2023-09-19T00:01:22;7.13;;;1.67;;
25731;SDS011;13585;50.864;4.406;2023-09-19T00:03:49;6.38;;;1.70;;
25731;SDS011;13585;50.864;4.406;2023-09-19T00:06:17;6.80;;;2.13;;
25731;SDS011;13585;50.864;4.406;2023-09-19T00:08:43;4.28;;;1.50;;
25731;SDS011;13585;50.864;4.406;2023-09-19T00:11:21;4.65;;;1.83;;
25731;SDS011;13585;50.864;4.406;2023-09-19T00:16:39;5.80;;;1.73;;
25731;SDS011;13585;50.864;4.406;2023-09-19T00:19:15;5.78;;;1.70;;
25731;SDS011;13585;50.864;4.406;2023-09-19T00:21:53;4.65;;;1.88;;
25731;SDS011;13585;50.864;4.406;2023-09-19T00:24:18;4.82;;;1.65;;
25731;SDS011;13585;50.864;4.406;2023-09-19T00:26:44;6.45;;;1.85;;
25731;SDS011;13585;50.864;4.406;2023-09-19T00:29:11;5.30;;;1.63;;
25731;SDS011;13585;50.864;4.406;2023-09-19T00:31:42;3.85;;;1.75;;
25731;SDS011;13585;50.864;4.406;2023-09-19T00:34:09;5.00;;;1.70;;
25731;SDS011;13585;50.864;4.406;2023-09-19T00:39:57;5.65;;;1.60;;
25731;SDS011;13585;50.864;4.406;2023-09-19T00:45:11;4.72;;;1.48;;
25731;SDS011;13585;50.864;4.406;2023-09-19T00:47:44;5.55;;;1.52;;
25731;SDS011;13585;50.864;4.406;2023-09-19T00:50:18;3.38;;;1.45;;
25731;SDS011;13585;50.864;4.406;2023-09-19T00:52:53;3.22;;;1.40;;
25731;SDS011;13585;50.864;4.406;2023-09-19T00:55:34;4.63;;;1.55;;
25731;SDS011;13585;50.864;4.406;2023-09-19T00:58:04;5.10;;;1.52;;
25731;SDS011;13585;50.864;4.406;2023-09-19T01:00:33;3.78;;;1.58;;
25731;SDS011;13585;50.864;4.406;2023-09-19T01:03:00;3.47;;;1.40;;
25731;SDS011;13585;50.864;4.406;2023-09-19T01:05:28;4.38;;;1.70;;
25731;SDS011;13585;50.864;4.406;2023-09-19T01:08:00;3.00;;;1.55;;
25731;SDS011;13585;50.864;4.406;2023-09-19T01:10:26;5.15;;;2.10;;
25731;SDS011;13585;50.864;4.406;2023-09-19T01:12:59;3.88;;;1.60;;
25731;SDS011;13585;50.864;4.406;2023-09-19T01:15:59;3.20;;;1.52;;
25731;SDS011;13585;50.864;4.406;2023-09-19T01:30:32;3.78;;;1.60;;
25731;SDS011;13585;50.864;4.406;2023-09-19T01:33:04;5.18;;;1.70;;
25731;SDS011;13585;50.864;4.406;2023-09-19T01:35:31;3.70;;;1.60;;
25731;SDS011;13585;50.864;4.406;2023-09-19T01:37:59;6.95;;;1.80;;
25731;SDS011;13585;50.864;4.406;2023-09-19T01:40:25;7.00;;;1.50;;
25731;SDS011;13585;50.864;4.406;2023-09-19T01:54:11;5.38;;;1.70;;
25731;SDS011;13585;50.864;4.406;2023-09-19T01:56:50;4.07;;;1.40;;
25731;SDS011;13585;50.864;4.406;2023-09-19T01:59:41;3.65;;;1.45;;
25731;SDS011;13585;50.864;4.406;2023-09-19T02:02:21;5.55;;;1.55;;
25731;SDS011;13585;50.864;4.406;2023-09-19T02:04:48;3.45;;;1.27;;
25731;SDS011;13585;50.864;4.406;2023-09-19T02:07:18;4.30;;;1.30;;
25731;SDS011;13585;50.864;4.406;2023-09-19T02:09:43;2.45;;;1.13;;
25731;SDS011;13585;50.864;4.406;2023-09-19T02:12:11;4.05;;;1.60;;
25731;SDS011;13585;50.864;4.406;2023-09-19T02:14:41;4.00;;;1.50;;
25731;SDS011;13585;50.864;4.406;2023-09-19T02:17:12;3.17;;;1.30;;
25731;SDS011;13585;50.864;4.406;2023-09-19T02:22:15;3.60;;;1.52;;
25731;SDS011;13585;50.864;4.406;2023-09-19T02:24:44;5.10;;;1.40;;
25731;SDS011;13585;50.864;4.406;2023-09-19T02:27:11;3.50;;;1.35;;
25731;SDS011;13585;50.864;4.406;2023-09-19T02:29:39;4.38;;;1.60;;
25731;SDS011;13585;50.864;4.406;2023-09-19T02:32:05;4.45;;;1.40;;
25731;SDS011;13585;50.864;4.406;2023-09-19T02:34:34;4.53;;;1.50;;
25731;SDS011;13585;50.864;4.406;2023-09-19T02:37:01;3.10;;;1.30;;
25731;SDS011;13585;50.864;4.406;2023-09-19T02:39:30;3.85;;;1.38;;
25731;SDS011;13585;50.864;4.406;2023-09-19T02:41:57;4.72;;;1.63;;
25731;SDS011;13585;50.864;4.406;2023-09-19T02:44:28;3.95;;;1.25;;
25731;SDS011;13585;50.864;4.406;2023-09-19T02:49:20;3.58;;;1.58;;
25731;SDS011;13585;50.864;4.406;2023-09-19T02:51:45;4.00;;;1.40;;
25731;SDS011;13585;50.864;4.406;2023-09-19T02:57:01;2.58;;;1.40;;
25731;SDS011;13585;50.864;4.406;2023-09-19T02:59:28;2.85;;;1.20;;
25731;SDS011;13585;50.864;4.406;2023-09-19T03:01:56;6.65;;;1.50;;
25731;SDS011;13585;50.864;4.406;2023-09-19T03:04:22;2.42;;;1.25;;
25731;SDS011;13585;50.864;4.406;2023-09-19T03:06:48;4.15;;;1.30;;
25731;SDS011;13585;50.864;4.406;2023-09-19T03:09:16;3.90;;;1.10;;
25731;SDS011;13585;50.864;4.406;2023-09-19T03:11:44;5.68;;;1.85;;
25731;SDS011;13585;50.864;4.406;2023-09-19T03:14:17;5.18;;;1.50;;
25731;SDS011;13585;50.864;4.406;2023-09-19T03:16:45;2.75;;;1.23;;
25731;SDS011;13585;50.864;4.406;2023-09-19T03:19:10;4.10;;;1.55;;
25731;SDS011;13585;50.864;4.406;2023-09-19T03:21:43;4.13;;;1.35;;
25731;SDS011;13585;50.864;4.406;2023-09-19T03:24:12;5.00;;;1.60;;
25731;SDS011;13585;50.864;4.406;2023-09-19T03:29:28;3.88;;;1.45;;
25731;SDS011;13585;50.864;4.406;2023-09-19T03:31:54;5.25;;;1.50;;
25731;SDS011;13585;50.864;4.406;2023-09-19T03:34:19;3.50;;;1.42;;
25731;SDS011;13585;50.864;4.406;2023-09-19T03:36:45;3.85;;;1.25;;
25731;SDS011;13585;50.864;4.406;2023-09-19T03:39:20;3.40;;;1.38;;
25731;SDS011;13585;50.864;4.406;2023-09-19T03:41:46;3.60;;;1.60;;
25731;SDS011;13585;50.864;4.406;2023-09-19T03:44:12;4.18;;;1.55;;
25731;SDS011;13585;50.864;4.406;2023-09-19T03:46:37;5.22;;;1.58;;
25731;SDS011;13585;50.864;4.406;2023-09-19T03:49:03;5.93;;;1.60;;
25731;SDS011;13585;50.864;4.406;2023-09-19T03:51:29;4.47;;;1.60;;
25731;SDS011;13585;50.864;4.406;2023-09-19T03:53:55;5.50;;;1.60;;
25731;SDS011;13585;50.864;4.406;2023-09-19T03:56:27;2.50;;;1.20;;
25731;SDS011;13585;50.864;4.406;2023-09-19T03:58:53;4.93;;;1.70;;
25731;SDS011;13585;50.864;4.406;2023-09-19T04:01:22;4.00;;;1.63;;
25731;SDS011;13585;50.864;4.406;2023-09-19T04:03:48;4.88;;;1.27;;
25731;SDS011;13585;50.864;4.406;2023-09-19T04:06:15;3.58;;;1.10;;
25731;SDS011;13585;50.864;4.406;2023-09-19T04:08:50;4.80;;;1.38;;
25731;SDS011;13585;50.864;4.406;2023-09-19T04:11:18;5.53;;;1.33;;
25731;SDS011;13585;50.864;4.406;2023-09-19T04:13:47;5.60;;;1.40;;
25731;SDS011;13585;50.864;4.406;2023-09-19T04:16:13;5.65;;;1.67;;
25731;SDS011;13585;50.864;4.406;2023-09-19T04:18:56;2.15;;;1.20;;
25731;SDS011;13585;50.864;4.406;2023-09-19T04:21:22;4.82;;;1.23;;
25731;SDS011;13585;50.864;4.406;2023-09-19T04:23:53;4.13;;;1.55;;
25731;SDS011;13585;50.864;4.406;2023-09-19T04:26:19;4.18;;;1.55;;
25731;SDS011;13585;50.864;4.406;2023-09-19T04:28:45;4.60;;;1.55;;
25731;SDS011;13585;50.864;4.406;2023-09-19T04:31:11;4.65;;;1.48;;
25731;SDS011;13585;50.864;4.406;2023-09-19T04:33:43;3.38;;;1.40;;
25731;SDS011;13585;50.864;4.406;2023-09-19T04:38:34;3.25;;;1.20;;
25731;SDS011;13585;50.864;4.406;2023-09-19T04:41:01;3.95;;;1.70;;
25731;SDS011;13585;50.864;4.406;2023-09-19T04:43:27;4.13;;;1.55;;
25731;SDS011;13585;50.864;4.406;2023-09-19T04:45:54;3.80;;;1.65;;
25731;SDS011;13585;50.864;4.406;2023-09-19T04:48:21;4.28;;;1.23;;
25731;SDS011;13585;50.864;4.406;2023-09-19T04:51:01;3.08;;;1.38;;
25731;SDS011;13585;50.864;4.406;2023-09-19T04:53:26;5.68;;;1.42;;
25731;SDS011;13585;50.864;4.406;2023-09-19T04:56:01;4.20;;;1.70;;
25731;SDS011;13585;50.864;4.406;2023-09-19T04:58:35;4.00;;;1.33;;
25731;SDS011;13585;50.864;4.406;2023-09-19T05:01:01;4.00;;;1.45;;
25731;SDS011;13585;50.864;4.406;2023-09-19T05:03:30;5.88;;;1.10;;
25731;SDS011;13585;50.864;4.406;2023-09-19T05:05:55;4.63;;;1.35;;
25731;SDS011;13585;50.864;4.406;2023-09-19T05:08:21;8.90;;;2.00;;
25731;SDS011;13585;50.864;4.406;2023-09-19T05:11:03;6.18;;;1.52;;
25731;SDS011;13585;50.864;4.406;2023-09-19T05:15:54;3.38;;;1.27;;
25731;SDS011;13585;50.864;4.406;2023-09-19T05:18:19;4.05;;;1.25;;
25731;SDS011;13585;50.864;4.406;2023-09-19T05:20:55;10.50;;;1.80;;
25731;SDS011;13585;50.864;4.406;2023-09-19T05:23:21;8.15;;;2.00;;
25731;SDS011;13585;50.864;4.406;2023-09-19T05:25:46;8.02;;;1.52;;
25731;SDS011;13585;50.864;4.406;2023-09-19T05:28:12;8.60;;;1.50;;
25731;SDS011;13585;50.864;4.406;2023-09-19T05:30:40;4.85;;;1.65;;
25731;SDS011;13585;50.864;4.406;2023-09-19T05:33:06;7.25;;;1.70;;
25731;SDS011;13585;50.864;4.406;2023-09-19T05:35:45;6.63;;;1.60;;
25731;SDS011;13585;50.864;4.406;2023-09-19T05:41:21;4.82;;;1.13;;
25731;SDS011;13585;50.864;4.406;2023-09-19T05:43:55;11.32;;;1.60;;
25731;SDS011;13585;50.864;4.406;2023-09-19T05:46:24;4.00;;;1.45;;
25731;SDS011;13585;50.864;4.406;2023-09-19T05:51:22;4.28;;;1.45;;
25731;SDS011;13585;50.864;4.406;2023-09-19T05:54:00;5.85;;;1.40;;
25731;SDS011;13585;50.864;4.406;2023-09-19T05:56:40;5.28;;;1.65;;
25731;SDS011;13585;50.864;4.406;2023-09-19T05:59:06;7.57;;;1.90;;
25731;SDS011;13585;50.864;4.406;2023-09-19T06:01:38;8.52;;;1.58;;
25731;SDS011;13585;50.864;4.406;2023-09-19T06:04:12;8.63;;;1.80;;
25731;SDS011;13585;50.864;4.406;2023-09-19T06:06:38;5.25;;;1.50;;
25731;SDS011;13585;50.864;4.406;2023-09-19T06:09:05;4.18;;;1.50;;
25731;SDS011;13585;50.864;4.406;2023-09-19T06:11:33;5.20;;;1.70;;
25731;SDS011;13585;50.864;4.406;2023-09-19T06:14:00;5.97;;;1.55;;
25731;SDS011;13585;50.864;4.406;2023-09-19T06:16:27;5.60;;;1.60;;
25731;SDS011;13585;50.864;4.406;2023-09-19T06:18:59;7.05;;;1.60;;
25731;SDS011;13585;50.864;4.406;2023-09-19T06:21:26;11.23;;;1.88;;
25731;SDS011;13585;50.864;4.406;2023-09-19T06:23:55;5.70;;;1.85;;
25731;SDS011;13585;50.864;4.406;2023-09-19T06:26:23;6.25;;;1.48;;
25731;SDS011;13585;50.864;4.406;2023-09-19T06:28:48;6.03;;;1.55;;
25731;SDS011;13585;50.864;4.406;2023-09-19T06:31:17;5.72;;;1.58;;
25731;SDS011;13585;50.864;4.406;2023-09-19T06:33:43;5.70;;;1.35;;
25731;SDS011;13585;50.864;4.406;2023-09-19T06:36:17;3.83;;;1.50;;
25731;SDS011;13585;50.864;4.406;2023-09-19T06:38:56;4.75;;;1.52;;
25731;SDS011;13585;50.864;4.406;2023-09-19T06:41:34;4.45;;;1.40;;
25731;SDS011;13585;50.864;4.406;2023-09-19T06:44:03;3.97;;;1.30;;
25731;SDS011;13585;50.864;4.406;2023-09-19T06:46:30;3.90;;;1.42;;
25731;SDS011;13585;50.864;4.406;2023-09-19T06:49:09;5.28;;;1.35;;
25731;SDS011;13585;50.864;4.406;2023-09-19T06:51:38;3.75;;;1.25;;
25731;SDS011;13585;50.864;4.406;2023-09-19T06:54:04;5.80;;;1.60;;
25731;SDS011;13585;50.864;4.406;2023-09-19T06:56:30;6.00;;;1.63;;
25731;SDS011;13585;50.864;4.406;2023-09-19T06:58:59;3.45;;;1.27;;
25731;SDS011;13585;50.864;4.406;2023-09-19T07:01:24;6.28;;;1.65;;
25731;SDS011;13585;50.864;4.406;2023-09-19T07:03:53;3.08;;;1.38;;
25731;SDS011;13585;50.864;4.406;2023-09-19T07:06:19;6.00;;;1.70;;
25731;SDS011;13585;50.864;4.406;2023-09-19T07:08:47;4.00;;;1.20;;
25731;SDS011;13585;50.864;4.406;2023-09-19T07:11:15;5.40;;;1.50;;
25731;SDS011;13585;50.864;4.406;2023-09-19T07:13:41;8.35;;;1.60;;
25731;SDS011;13585;50.864;4.406;2023-09-19T07:16:06;4.05;;;1.50;;
25731;SDS011;13585;50.864;4.406;2023-09-19T07:18:52;9.13;;;2.00;;
25731;SDS011;13585;50.864;4.406;2023-09-19T07:21:18;4.30;;;1.60;;
25731;SDS011;13585;50.864;4.406;2023-09-19T07:23:44;4.20;;;1.40;;
25731;SDS011;13585;50.864;4.406;2023-09-19T07:26:09;5.65;;;1.73;;
25731;SDS011;13585;50.864;4.406;2023-09-19T07:28:35;4.72;;;1.40;;
25731;SDS011;13585;50.864;4.406;2023-09-19T07:31:02;5.50;;;1.70;;
25731;SDS011;13585;50.864;4.406;2023-09-19T07:33:28;3.65;;;1.25;;
25731;SDS011;13585;50.864;4.406;2023-09-19T07:35:57;4.07;;;1.55;;
25731;SDS011;13585;50.864;4.406;2023-09-19T07:38:25;3.10;;;1.42;;
25731;SDS011;13585;50.864;4.406;2023-09-19T07:41:01;4.05;;;1.23;;
25731;SDS011;13585;50.864;4.406;2023-09-19T07:43:27;5.43;;;1.23;;
25731;SDS011;13585;50.864;4.406;2023-09-19T07:46:02;5.72;;;1.58;;
25731;SDS011;13585;50.864;4.406;2023-09-19T07:48:31;4.90;;;1.38;;
25731;SDS011;13585;50.864;4.406;2023-09-19T07:51:01;3.97;;;1.38;;
25731;SDS011;13585;50.864;4.406;2023-09-19T07:53:32;4.03;;;1.40;;
25731;SDS011;13585;50.864;4.406;2023-09-19T07:56:03;4.88;;;1.50;;
25731;SDS011;13585;50.864;4.406;2023-09-19T07:58:38;4.57;;;1.55;;
25731;SDS011;13585;50.864;4.406;2023-09-19T08:01:06;3.15;;;1.15;;
25731;SDS011;13585;50.864;4.406;2023-09-19T08:03:33;2.78;;;1.20;;
25731;SDS011;13585;50.864;4.406;2023-09-19T08:05:59;4.50;;;1.55;;
25731;SDS011;13585;50.864;4.406;2023-09-19T08:08:26;3.88;;;1.10;;
25731;SDS011;13585;50.864;4.406;2023-09-19T08:11:02;2.83;;;1.38;;
25731;SDS011;13585;50.864;4.406;2023-09-19T08:13:35;4.47;;;1.45;;
25731;SDS011;13585;50.864;4.406;2023-09-19T08:16:04;4.22;;;1.27;;
25731;SDS011;13585;50.864;4.406;2023-09-19T08:18:36;3.97;;;1.20;;
25731;SDS011;13585;50.864;4.406;2023-09-19T08:21:05;3.03;;;1.42;;
25731;SDS011;13585;50.864;4.406;2023-09-19T08:23:33;3.45;;;1.35;;
25731;SDS011;13585;50.864;4.406;2023-09-19T08:25:58;2.88;;;1.27;;
25731;SDS011;13585;50.864;4.406;2023-09-19T08:28:27;3.92;;;1.20;;
25731;SDS011;13585;50.864;4.406;2023-09-19T08:31:04;4.28;;;1.52;;
25731;SDS011;13585;50.864;4.406;2023-09-19T08:33:33;5.97;;;1.48;;
25731;SDS011;13585;50.864;4.406;2023-09-19T08:36:09;4.38;;;1.15;;
25731;SDS011;13585;50.864;4.406;2023-09-19T08:38:38;6.07;;;1.50;;
25731;SDS011;13585;50.864;4.406;2023-09-19T08:41:17;6.07;;;1.33;;
25731;SDS011;13585;50.864;4.406;2023-09-19T08:43:43;4.82;;;1.30;;
25731;SDS011;13585;50.864;4.406;2023-09-19T08:46:13;6.20;;;1.52;;
25731;SDS011;13585;50.864;4.406;2023-09-19T08:52:01;3.42;;;1.17;;
25731;SDS011;13585;50.864;4.406;2023-09-19T08:54:37;3.17;;;1.35;;
25731;SDS011;13585;50.864;4.406;2023-09-19T08:57:06;4.43;;;1.60;;
25731;SDS011;13585;50.864;4.406;2023-09-19T08:59:42;4.00;;;1.60;;
25731;SDS011;13585;50.864;4.406;2023-09-19T09:02:12;5.60;;;1.50;;
25731;SDS011;13585;50.864;4.406;2023-09-19T09:04:40;3.40;;;1.42;;
25731;SDS011;13585;50.864;4.406;2023-09-19T09:07:14;4.70;;;1.48;;
25731;SDS011;13585;50.864;4.406;2023-09-19T09:09:42;4.15;;;1.60;;
25731;SDS011;13585;50.864;4.406;2023-09-19T09:12:11;4.30;;;1.50;;
25731;SDS011;13585;50.864;4.406;2023-09-19T09:14:38;4.30;;;1.58;;
25731;SDS011;13585;50.864;4.406;2023-09-19T09:17:05;3.72;;;1.30;;
25731;SDS011;13585;50.864;4.406;2023-09-19T09:19:30;5.45;;;1.58;;
25731;SDS011;13585;50.864;4.406;2023-09-19T09:22:06;6.07;;;1.75;;
25731;SDS011;13585;50.864;4.406;2023-09-19T09:24:36;5.05;;;1.63;;
25731;SDS011;13585;50.864;4.406;2023-09-19T09:27:15;5.55;;;1.40;;
25731;SDS011;13585;50.864;4.406;2023-09-19T09:29:47;5.32;;;1.67;;
25731;SDS011;13585;50.864;4.406;2023-09-19T09:32:16;7.50;;;1.75;;
25731;SDS011;13585;50.864;4.406;2023-09-19T09:34:50;7.38;;;1.52;;
25731;SDS011;13585;50.864;4.406;2023-09-19T09:37:20;4.63;;;1.63;;
25731;SDS011;13585;50.864;4.406;2023-09-19T09:42:31;8.18;;;1.60;;
25731;SDS011;13585;50.864;4.406;2023-09-19T09:45:19;4.28;;;1.35;;
25731;SDS011;13585;50.864;4.406;2023-09-19T09:47:58;5.57;;;1.30;;
25731;SDS011;13585;50.864;4.406;2023-09-19T09:50:39;3.45;;;1.38;;
25731;SDS011;13585;50.864;4.406;2023-09-19T09:56:23;8.20;;;2.20;;
25731;SDS011;13585;50.864;4.406;2023-09-19T10:07:57;5.32;;;1.65;;
25731;SDS011;13585;50.864;4.406;2023-09-19T10:10:53;5.65;;;1.40;;
25731;SDS011;13585;50.864;4.406;2023-09-19T10:26:23;5.85;;;1.63;;
25731;SDS011;13585;50.864;4.406;2023-09-19T10:50:07;4.75;;;1.33;;
25731;SDS011;13585;50.864;4.406;2023-09-19T11:01:46;7.65;;;1.58;;
25731;SDS011;13585;50.864;4.406;2023-09-19T11:23:24;4.78;;;1.40;;
25731;SDS011;13585;50.864;4.406;2023-09-19T11:26:10;5.82;;;1.23;;
25731;SDS011;13585;50.864;4.406;2023-09-19T11:44:33;3.30;;;1.30;;
25731;SDS011;13585;50.864;4.406;2023-09-19T11:47:00;2.90;;;0.80;;
25731;SDS011;13585;50.864;4.406;2023-09-19T11:49:40;2.33;;;0.90;;
25731;SDS011;13585;50.864;4.406;2023-09-19T11:52:38;5.03;;;1.05;;
25731;SDS011;13585;50.864;4.406;2023-09-19T11:55:06;6.25;;;1.10;;
25731;SDS011;13585;50.864;4.406;2023-09-19T11:57:34;2.80;;;1.10;;
25731;SDS011;13585;50.864;4.406;2023-09-19T12:00:03;4.55;;;1.13;;
25731;SDS011;13585;50.864;4.406;2023-09-19T12:02:55;4.45;;;1.52;;
25731;SDS011;13585;50.864;4.406;2023-09-19T12:05:29;6.90;;;1.90;;
25731;SDS011;13585;50.864;4.406;2023-09-19T12:07:58;6.65;;;1.55;;
25731;SDS011;13585;50.864;4.406;2023-09-19T12:10:24;5.43;;;1.50;;
25731;SDS011;13585;50.864;4.406;2023-09-19T12:13:05;5.70;;;1.40;;
25731;SDS011;13585;50.864;4.406;2023-09-19T12:15:37;6.38;;;1.70;;
25731;SDS011;13585;50.864;4.406;2023-09-19T12:21:31;14.45;;;4.50;;
25731;SDS011;13585;50.864;4.406;2023-09-19T12:26:30;5.32;;;2.03;;
25731;SDS011;13585;50.864;4.406;2023-09-19T12:29:18;7.55;;;1.85;;
25731;SDS011;13585;50.864;4.406;2023-09-19T12:31:51;4.00;;;1.60;;
25731;SDS011;13585;50.864;4.406;2023-09-19T12:38:21;5.30;;;1.60;;
25731;SDS011;13585;50.864;4.406;2023-09-19T12:56:18;5.47;;;1.38;;
25731;SDS011;13585;50.864;4.406;2023-09-19T12:59:02;5.25;;;1.30;;
25731;SDS011;13585;50.864;4.406;2023-09-19T13:01:28;2.80;;;1.00;;
25731;SDS011;13585;50.864;4.406;2023-09-19T13:06:58;4.50;;;1.48;;
25731;SDS011;13585;50.864;4.406;2023-09-19T13:15:15;2.10;;;1.05;;
25731;SDS011;13585;50.864;4.406;2023-09-19T13:21:06;4.38;;;1.33;;
25731;SDS011;13585;50.864;4.406;2023-09-19T13:23:37;5.15;;;1.20;;
25731;SDS011;13585;50.864;4.406;2023-09-19T13:26:25;3.22;;;1.30;;
25731;SDS011;13585;50.864;4.406;2023-09-19T13:29:03;2.33;;;1.05;;
25731;SDS011;13585;50.864;4.406;2023-09-19T13:39:46;3.20;;;1.15;;
25731;SDS011;13585;50.864;4.406;2023-09-19T13:42:13;3.80;;;1.05;;
25731;SDS011;13585;50.864;4.406;2023-09-19T13:44:39;3.60;;;1.00;;
25731;SDS011;13585;50.864;4.406;2023-09-19T13:47:15;5.70;;;1.25;;
25731;SDS011;13585;50.864;4.406;2023-09-19T13:52:29;3.30;;;1.00;;
25731;SDS011;13585;50.864;4.406;2023-09-19T13:54:57;5.60;;;1.30;;
25731;SDS011;13585;50.864;4.406;2023-09-19T13:57:26;3.10;;;1.17;;
25731;SDS011;13585;50.864;4.406;2023-09-19T13:59:58;6.00;;;1.30;;
25731;SDS011;13585;50.864;4.406;2023-09-19T14:02:24;4.95;;;1.23;;
25731;SDS011;13585;50.864;4.406;2023-09-19T14:04:58;4.78;;;1.10;;
25731;SDS011;13585;50.864;4.406;2023-09-19T14:07:24;2.95;;;1.00;;
25731;SDS011;13585;50.864;4.406;2023-09-19T14:09:50;3.50;;;1.00;;
25731;SDS011;13585;50.864;4.406;2023-09-19T14:12:16;5.80;;;0.98;;
25731;SDS011;13585;50.864;4.406;2023-09-19T14:14:42;5.15;;;1.10;;
25731;SDS011;13585;50.864;4.406;2023-09-19T14:17:07;4.25;;;1.10;;
25731;SDS011;13585;50.864;4.406;2023-09-19T14:19:34;4.65;;;1.10;;
25731;SDS011;13585;50.864;4.406;2023-09-19T14:22:01;5.65;;;0.90;;
25731;SDS011;13585;50.864;4.406;2023-09-19T14:24:35;2.85;;;1.00;;
25731;SDS011;13585;50.864;4.406;2023-09-19T14:27:03;4.60;;;1.08;;
25731;SDS011;13585;50.864;4.406;2023-09-19T14:29:34;3.13;;;0.93;;
25731;SDS011;13585;50.864;4.406;2023-09-19T14:31:59;4.53;;;1.30;;
25731;SDS011;13585;50.864;4.406;2023-09-19T14:34:28;2.67;;;0.95;;
25731;SDS011;13585;50.864;4.406;2023-09-19T14:36:54;4.57;;;1.05;;
25731;SDS011;13585;50.864;4.406;2023-09-19T14:39:20;5.13;;;1.10;;
25731;SDS011;13585;50.864;4.406;2023-09-19T14:41:45;3.72;;;1.10;;
25731;SDS011;13585;50.864;4.406;2023-09-19T14:44:11;3.63;;;1.08;;
25731;SDS011;13585;50.864;4.406;2023-09-19T14:46:41;4.10;;;1.38;;
25731;SDS011;13585;50.864;4.406;2023-09-19T14:49:10;3.72;;;1.10;;
25731;SDS011;13585;50.864;4.406;2023-09-19T14:51:40;4.57;;;1.15;;
25731;SDS011;13585;50.864;4.406;2023-09-19T14:54:09;3.22;;;1.00;;
25731;SDS011;13585;50.864;4.406;2023-09-19T14:56:41;3.42;;;1.30;;
25731;SDS011;13585;50.864;4.406;2023-09-19T14:59:14;2.45;;;1.15;;
25731;SDS011;13585;50.864;4.406;2023-09-19T15:02:07;4.47;;;1.42;;
25731;SDS011;13585;50.864;4.406;2023-09-19T15:04:38;3.15;;;1.30;;
25731;SDS011;13585;50.864;4.406;2023-09-19T15:07:11;3.30;;;1.02;;
25731;SDS011;13585;50.864;4.406;2023-09-19T15:09:37;3.65;;;1.33;;
25731;SDS011;13585;50.864;4.406;2023-09-19T15:12:06;3.38;;;1.08;;
25731;SDS011;13585;50.864;4.406;2023-09-19T15:14:32;2.88;;;1.15;;
25731;SDS011;13585;50.864;4.406;2023-09-19T15:16:57;6.15;;;1.08;;
25731;SDS011;13585;50.864;4.406;2023-09-19T15:19:23;4.10;;;1.27;;
25731;SDS011;13585;50.864;4.406;2023-09-19T15:21:55;6.55;;;1.00;;
25731;SDS011;13585;50.864;4.406;2023-09-19T15:24:29;3.17;;;0.90;;
25731;SDS011;13585;50.864;4.406;2023-09-19T15:27:00;2.38;;;0.90;;
25731;SDS011;13585;50.864;4.406;2023-09-19T15:29:32;2.65;;;1.00;;
25731;SDS011;13585;50.864;4.406;2023-09-19T15:32:32;3.00;;;1.08;;
25731;SDS011;13585;50.864;4.406;2023-09-19T15:34:58;3.15;;;0.93;;
25731;SDS011;13585;50.864;4.406;2023-09-19T15:37:23;2.75;;;1.00;;
25731;SDS011;13585;50.864;4.406;2023-09-19T15:39:50;3.63;;;1.08;;
25731;SDS011;13585;50.864;4.406;2023-09-19T15:42:16;4.13;;;1.13;;
25731;SDS011;13585;50.864;4.406;2023-09-19T15:44:45;5.65;;;1.30;;
25731;SDS011;13585;50.864;4.406;2023-09-19T15:47:31;5.00;;;1.10;;
25731;SDS011;13585;50.864;4.406;2023-09-19T15:49:58;3.72;;;1.15;;
25731;SDS011;13585;50.864;4.406;2023-09-19T15:53:20;4.45;;;1.10;;
25731;SDS011;13585;50.864;4.406;2023-09-19T15:55:45;5.22;;;1.33;;
25731;SDS011;13585;50.864;4.406;2023-09-19T15:58:29;2.22;;;1.00;;
25731;SDS011;13585;50.864;4.406;2023-09-19T16:04:01;4.22;;;1.08;;
25731;SDS011;13585;50.864;4.406;2023-09-19T16:09:38;3.47;;;1.42;;
25731;SDS011;13585;50.864;4.406;2023-09-19T16:12:13;6.18;;;1.20;;
25731;SDS011;13585;50.864;4.406;2023-09-19T16:14:39;2.95;;;1.10;;
25731;SDS011;13585;50.864;4.406;2023-09-19T16:17:11;4.05;;;1.20;;
25731;SDS011;13585;50.864;4.406;2023-09-19T16:19:51;2.20;;;0.90;;
25731;SDS011;13585;50.864;4.406;2023-09-19T16:22:17;3.05;;;0.90;;
25731;SDS011;13585;50.864;4.406;2023-09-19T16:25:01;3.05;;;0.95;;
25731;SDS011;13585;50.864;4.406;2023-09-19T16:27:27;3.33;;;1.08;;
25731;SDS011;13585;50.864;4.406;2023-09-19T16:29:53;3.00;;;1.00;;
25731;SDS011;13585;50.864;4.406;2023-09-19T16:32:19;5.93;;;1.10;;
25731;SDS011;13585;50.864;4.406;2023-09-19T16:34:45;5.95;;;1.10;;
25731;SDS011;13585;50.864;4.406;2023-09-19T16:37:19;2.65;;;1.05;;
25731;SDS011;13585;50.864;4.406;2023-09-19T16:39:52;3.67;;;1.25;;
25731;SDS011;13585;50.864;4.406;2023-09-19T16:42:17;5.07;;;1.40;;
25731;SDS011;13585;50.864;4.406;2023-09-19T16:44:43;9.35;;;1.35;;
25731;SDS011;13585;50.864;4.406;2023-09-19T16:47:09;2.95;;;1.33;;
25731;SDS011;13585;50.864;4.406;2023-09-19T16:58:08;113.20;;;23.80;;
25731;SDS011;13585;50.864;4.406;2023-09-19T17:03:16;205.45;;;54.17;;
25731;SDS011;13585;50.864;4.406;2023-09-19T17:05:59;198.38;;;55.80;;
25731;SDS011;13585;50.864;4.406;2023-09-19T17:08:43;119.57;;;33.00;;
25731;SDS011;13585;50.864;4.406;2023-09-19T17:11:55;108.97;;;32.00;;
25731;SDS011;13585;50.864;4.406;2023-09-19T17:17:34;66.43;;;16.90;;
25731;SDS011;13585;50.864;4.406;2023-09-19T17:23:18;56.00;;;12.40;;
25731;SDS011;13585;50.864;4.406;2023-09-19T17:26:19;34.67;;;11.52;;
25731;SDS011;13585;50.864;4.406;2023-09-19T17:28:46;31.90;;;9.50;;
25731;SDS011;13585;50.864;4.406;2023-09-19T17:31:14;34.60;;;8.88;;
25731;SDS011;13585;50.864;4.406;2023-09-19T17:36:46;26.05;;;7.57;;
25731;SDS011;13585;50.864;4.406;2023-09-19T17:39:16;24.10;;;7.05;;
25731;SDS011;13585;50.864;4.406;2023-09-19T17:42:03;22.45;;;6.13;;
25731;SDS011;13585;50.864;4.406;2023-09-19T17:44:53;21.00;;;6.07;;
25731;SDS011;13585;50.864;4.406;2023-09-19T17:47:28;20.17;;;5.82;;
25731;SDS011;13585;50.864;4.406;2023-09-19T17:49:53;26.70;;;5.50;;
25731;SDS011;13585;50.864;4.406;2023-09-19T18:02:37;18.17;;;5.60;;
25731;SDS011;13585;50.864;4.406;2023-09-19T18:05:36;15.00;;;5.25;;
25731;SDS011;13585;50.864;4.406;2023-09-19T18:08:07;17.38;;;5.28;;
25731;SDS011;13585;50.864;4.406;2023-09-19T18:20:36;13.95;;;4.82;;
25731;SDS011;13585;50.864;4.406;2023-09-19T18:23:07;16.25;;;4.70;;
25731;SDS011;13585;50.864;4.406;2023-09-19T18:31:09;13.05;;;4.22;;
25731;SDS011;13585;50.864;4.406;2023-09-19T18:43:02;14.07;;;4.17;;
25731;SDS011;13585;50.864;4.406;2023-09-19T18:50:44;8.90;;;3.15;;
25731;SDS011;13585;50.864;4.406;2023-09-19T18:53:10;9.30;;;3.22;;
25731;SDS011;13585;50.864;4.406;2023-09-19T18:55:44;9.32;;;3.28;;
25731;SDS011;13585;50.864;4.406;2023-09-19T18:58:16;9.30;;;3.20;;
25731;SDS011;13585;50.864;4.406;2023-09-19T19:03:32;10.00;;;3.22;;
25731;SDS011;13585;50.864;4.406;2023-09-19T19:06:10;7.90;;;2.88;;
25731;SDS011;13585;50.864;4.406;2023-09-19T19:08:40;10.02;;;3.15;;
25731;SDS011;13585;50.864;4.406;2023-09-19T19:11:08;6.85;;;2.65;;
25731;SDS011;13585;50.864;4.406;2023-09-19T19:13:44;7.45;;;2.95;;
25731;SDS011;13585;50.864;4.406;2023-09-19T19:16:13;10.20;;;3.38;;
25731;SDS011;13585;50.864;4.406;2023-09-19T19:18:46;6.38;;;2.40;;
25731;SDS011;13585;50.864;4.406;2023-09-19T19:21:17;6.25;;;2.75;;
25731;SDS011;13585;50.864;4.406;2023-09-19T19:23:50;4.32;;;2.20;;
25731;SDS011;13585;50.864;4.406;2023-09-19T19:26:17;7.25;;;2.60;;
25731;SDS011;13585;50.864;4.406;2023-09-19T19:31:40;4.82;;;2.47;;
25731;SDS011;13585;50.864;4.406;2023-09-19T19:34:12;6.35;;;2.70;;
25731;SDS011;13585;50.864;4.406;2023-09-19T19:36:49;6.38;;;2.47;;
25731;SDS011;13585;50.864;4.406;2023-09-19T19:39:15;7.28;;;2.70;;